createdAt,value
2019-05-19T00:00:16.179Z,96859.14
2019-05-19T00:01:20.402Z,96864.88
2019-05-19T00:02:27.220Z,96862.20
2019-05-19T00:03:33.117Z,96867.23
2019-05-19T00:04:36.425Z,96859.20
2019-05-19T00:05:39.791Z,96859.20
2019-05-19T00:06:42.799Z,96859.05
2019-05-19T00:07:46.939Z,96853.91
2019-05-19T00:08:49.793Z,96853.91
2019-05-19T00:09:53.738Z,96860.73
2019-05-19T00:11:00.877Z,96853.30
2019-05-19T00:12:04.419Z,96850.66
2019-05-19T00:13:07.740Z,96856.57
2019-05-19T00:14:12.961Z,96858.64
2019-05-19T00:15:17.826Z,96859.55
2019-05-19T00:16:21.488Z,96857.20
2019-05-19T00:17:24.344Z,96857.53
2019-05-19T00:18:27.777Z,96857.53
2019-05-19T00:19:30.603Z,96858.97
2019-05-19T00:20:36.767Z,96858.97
2019-05-19T00:21:39.615Z,96859.23
2019-05-19T00:22:43.393Z,96854.22
2019-05-19T00:23:49.384Z,96853.80
2019-05-19T00:24:52.739Z,96851.45
2019-05-19T00:25:55.681Z,96849.11
2019-05-19T00:26:59.119Z,96852.67
2019-05-19T00:28:01.947Z,96847.26
2019-05-19T00:29:05.878Z,96853.20
2019-05-19T00:30:11.154Z,96853.20
2019-05-19T00:31:14.524Z,96851.75
2019-05-19T00:32:17.396Z,96849.75
2019-05-19T00:33:20.847Z,96851.46
2019-05-19T00:34:23.668Z,96854.75
2019-05-19T00:35:28.542Z,96852.39
2019-05-19T00:36:32.741Z,96855.39
2019-05-19T00:37:36.200Z,96855.77
2019-05-19T00:38:39.061Z,96853.98
2019-05-19T00:39:42.424Z,96855.72
2019-05-19T00:40:45.722Z,96852.51
2019-05-19T00:41:49.654Z,96851.52
2019-05-19T00:42:52.452Z,96850.34
2019-05-19T00:43:58.630Z,96850.34
2019-05-19T00:45:01.438Z,96841.44
2019-05-19T00:46:05.301Z,96851.59
2019-05-19T00:47:08.247Z,96855.91
2019-05-19T00:48:11.991Z,96860.13
2019-05-19T00:49:14.877Z,96869.27
2019-05-19T00:50:18.275Z,96876.87
2019-05-19T00:51:21.054Z,96873.22
2019-05-19T00:52:24.444Z,96870.36
2019-05-19T00:53:27.293Z,96871.56
2019-05-19T00:54:32.594Z,96877.77
2019-05-19T00:55:35.413Z,96879.77
2019-05-19T00:56:38.757Z,96875.19
2019-05-19T00:57:41.593Z,96875.19
2019-05-19T00:58:46.060Z,96870.61
2019-05-19T00:59:48.855Z,96866.11
2019-05-19T01:00:53.080Z,96864.06
2019-05-19T01:01:55.876Z,96864.06
2019-05-19T01:02:59.231Z,96866.22
2019-05-19T01:04:02.077Z,96858.36
2019-05-19T01:05:05.878Z,96863.29
2019-05-19T01:06:08.795Z,96859.88
2019-05-19T01:07:12.711Z,96852.05
2019-05-19T01:08:15.576Z,96853.81
2019-05-19T01:09:18.991Z,96854.41
2019-05-19T01:10:21.844Z,96861.19
2019-05-19T01:11:25.196Z,96860.37
2019-05-19T01:12:28.017Z,96852.16
2019-05-19T01:13:31.897Z,96853.36
2019-05-19T01:14:34.719Z,96853.36
2019-05-19T01:15:38.158Z,96848.19
2019-05-19T01:16:41.403Z,96854.24
2019-05-19T01:17:44.750Z,96854.24
2019-05-19T01:18:48.664Z,96847.84
2019-05-19T01:19:56.141Z,96848.52
2019-05-19T01:20:57.078Z,96847.15
2019-05-19T01:22:00.802Z,96843.07
2019-05-19T01:23:03.623Z,96849.37
2019-05-19T01:24:07.082Z,96841.07
2019-05-19T01:25:09.895Z,96836.63
2019-05-19T01:26:15.096Z,96837.78
2019-05-19T01:27:18.330Z,96821.55
2019-05-19T01:28:21.733Z,96821.55
2019-05-19T01:29:24.641Z,96836.49
2019-05-19T01:30:29.359Z,96832.45
2019-05-19T01:31:32.246Z,96832.45
2019-05-19T01:32:36.070Z,96833.09
2019-05-19T01:33:38.895Z,96833.09
2019-05-19T01:34:42.314Z,96832.39
2019-05-19T01:35:45.117Z,96825.95
2019-05-19T01:36:48.548Z,96818.63
2019-05-19T01:37:54.439Z,96818.63
2019-05-19T01:38:58.160Z,96818.13
2019-05-19T01:40:07.059Z,96810.75
2019-05-19T01:41:10.423Z,96817.20
2019-05-19T01:42:16.049Z,96817.20
2019-05-19T01:43:19.401Z,96826.39
2019-05-19T01:44:22.219Z,96820.92
2019-05-19T01:45:25.603Z,96820.92
2019-05-19T01:46:28.914Z,96820.22
2019-05-19T01:47:32.303Z,96816.84
2019-05-19T01:48:36.465Z,96813.18
2019-05-19T01:49:40.253Z,96817.91
2019-05-19T01:51:32.415Z,96816.27
2019-05-19T01:51:50.058Z,96811.64
2019-05-19T01:52:54.794Z,96804.63
2019-05-19T01:53:58.142Z,96804.63
2019-05-19T01:55:01.498Z,96797.54
2019-05-19T01:56:04.934Z,96797.54
2019-05-19T01:57:07.766Z,96802.84
2019-05-19T01:58:11.680Z,96802.84
2019-05-19T01:59:14.520Z,96806.66
2019-05-19T02:00:17.987Z,96807.44
2019-05-19T02:01:21.166Z,96796.44
2019-05-19T02:02:25.035Z,96794.75
2019-05-19T02:03:29.810Z,96801.47
2019-05-19T02:04:33.345Z,96800.75
2019-05-19T02:05:39.025Z,96802.48
2019-05-19T02:06:42.424Z,96809.21
2019-05-19T02:07:45.247Z,96808.00
2019-05-19T02:08:51.111Z,96807.84
2019-05-19T02:09:54.495Z,96813.13
2019-05-19T02:10:58.410Z,96812.53
2019-05-19T02:12:04.246Z,96810.88
2019-05-19T02:13:14.185Z,96804.44
2019-05-19T02:14:17.421Z,96799.88
2019-05-19T02:15:23.583Z,96795.27
2019-05-19T02:16:27.827Z,96800.47
2019-05-19T02:17:31.551Z,96798.70
2019-05-19T02:18:34.453Z,96804.91
2019-05-19T02:19:38.846Z,96801.61
2019-05-19T02:20:41.747Z,96804.31
2019-05-19T02:22:08.100Z,96807.38
2019-05-19T02:23:11.436Z,96807.38
2019-05-19T02:24:15.219Z,96810.11
2019-05-19T02:25:18.085Z,96810.55
2019-05-19T02:26:21.434Z,96808.72
2019-05-19T02:27:24.260Z,96806.23
2019-05-19T02:28:27.682Z,96808.73
2019-05-19T02:29:33.537Z,96814.42
2019-05-19T02:30:38.374Z,96811.31
2019-05-19T02:31:41.988Z,96806.77
2019-05-19T02:32:45.438Z,96806.77
2019-05-19T02:33:48.272Z,96806.27
2019-05-19T02:34:51.879Z,96802.73
2019-05-19T02:35:54.873Z,96805.28
2019-05-19T02:36:58.737Z,96800.22
2019-05-19T02:38:01.544Z,96800.28
2019-05-19T02:39:06.709Z,96799.85
2019-05-19T02:40:09.559Z,96798.30
2019-05-19T02:41:13.013Z,96802.18
2019-05-19T02:42:16.264Z,96792.84
2019-05-19T02:43:19.717Z,96798.23
2019-05-19T02:44:23.828Z,96802.98
2019-05-19T02:45:27.272Z,96797.22
2019-05-19T02:46:32.942Z,96802.30
2019-05-19T02:47:36.354Z,96799.42
2019-05-19T02:48:39.657Z,96797.44
2019-05-19T02:49:43.049Z,96797.44
2019-05-19T02:50:52.186Z,96798.33
2019-05-19T02:51:51.234Z,96798.86
2019-05-19T02:52:54.090Z,96796.38
2019-05-19T02:53:57.529Z,96799.69
2019-05-19T02:55:00.932Z,96794.89
2019-05-19T02:56:04.502Z,96794.89
2019-05-19T02:57:07.337Z,96800.09
2019-05-19T02:58:10.789Z,96802.70
2019-05-19T02:59:13.627Z,96797.03
2019-05-19T03:00:17.034Z,96799.86
2019-05-19T03:01:20.325Z,96791.80
2019-05-19T03:02:23.968Z,96793.91
2019-05-19T03:03:26.861Z,96790.84
2019-05-19T03:04:30.339Z,96790.77
2019-05-19T03:05:33.272Z,96794.71
2019-05-19T03:06:36.744Z,96794.71
2019-05-19T03:07:39.983Z,96795.92
2019-05-19T03:08:43.671Z,96789.12
2019-05-19T03:09:46.600Z,96799.28
2019-05-19T03:10:50.067Z,96799.28
2019-05-19T03:11:53.171Z,96799.28
2019-05-19T03:12:58.830Z,96801.08
2019-05-19T03:14:02.916Z,96798.65
2019-05-19T03:15:06.419Z,96798.65
2019-05-19T03:16:09.389Z,96808.73
2019-05-19T03:17:12.841Z,96801.41
2019-05-19T03:18:16.272Z,96799.86
2019-05-19T03:19:21.760Z,96807.52
2019-05-19T03:20:25.086Z,96802.44
2019-05-19T03:21:28.546Z,96802.44
2019-05-19T03:22:34.605Z,96799.67
2019-05-19T03:23:41.195Z,96799.67
2019-05-19T03:24:44.071Z,96802.51
2019-05-19T03:25:47.460Z,96802.70
2019-05-19T03:26:50.338Z,96799.19
2019-05-19T03:27:54.146Z,96796.55
2019-05-19T03:28:58.322Z,96797.75
2019-05-19T03:30:20.461Z,96799.20
2019-05-19T03:31:45.617Z,96797.06
2019-05-19T03:32:53.189Z,96803.06
2019-05-19T03:33:59.143Z,96792.54
2019-05-19T03:35:02.098Z,96792.54
2019-05-19T03:36:07.584Z,96797.69
2019-05-19T03:38:48.481Z,96798.35
2019-05-19T03:39:51.988Z,96794.97
2019-05-19T03:40:54.886Z,96791.25
2019-05-19T03:41:58.348Z,96791.25
2019-05-19T03:43:01.203Z,96794.49
2019-05-19T03:44:04.636Z,96791.03
2019-05-19T03:45:07.803Z,96798.98
2019-05-19T03:46:11.395Z,96798.98
2019-05-19T03:47:14.264Z,96796.62
2019-05-19T03:48:17.830Z,96798.36
2019-05-19T03:49:20.669Z,96801.08
2019-05-19T03:50:24.538Z,96801.08
2019-05-19T03:51:31.358Z,96805.91
2019-05-19T03:52:32.912Z,96803.73
2019-05-19T03:53:35.821Z,96801.26
2019-05-19T03:54:39.263Z,96798.15
2019-05-19T03:55:42.070Z,96795.77
2019-05-19T03:56:45.538Z,96796.90
2019-05-19T03:57:50.600Z,96794.11
2019-05-19T03:58:55.189Z,96800.11
2019-05-19T03:59:58.120Z,96796.53
2019-05-19T04:01:01.497Z,96800.09
2019-05-19T04:02:04.342Z,96800.50
2019-05-19T04:03:07.774Z,96803.81
2019-05-19T04:04:11.003Z,96801.53
2019-05-19T04:05:14.369Z,96805.09
2019-05-19T04:06:17.173Z,96800.31
2019-05-19T04:07:20.662Z,96798.15
2019-05-19T04:08:23.692Z,96800.70
2019-05-19T04:09:27.179Z,96801.47
2019-05-19T04:10:30.580Z,96799.56
2019-05-19T04:11:34.210Z,96801.38
2019-05-19T04:12:43.282Z,96803.37
2019-05-19T04:13:42.683Z,96803.37
2019-05-19T04:14:45.649Z,96801.23
2019-05-19T04:16:19.349Z,96798.98
2019-05-19T04:16:53.980Z,96795.89
2019-05-19T04:17:57.414Z,96801.55
2019-05-19T04:19:00.218Z,96801.55
2019-05-19T04:20:03.646Z,96805.70
2019-05-19T04:21:06.468Z,96800.72
2019-05-19T04:22:09.825Z,96802.73
2019-05-19T04:23:13.113Z,96800.08
2019-05-19T04:24:16.725Z,96804.64
2019-05-19T04:25:19.612Z,96797.89
2019-05-19T04:26:22.989Z,96798.45
2019-05-19T04:27:25.825Z,96803.05
2019-05-19T04:28:29.168Z,96804.28
2019-05-19T04:29:32.544Z,96805.42
2019-05-19T04:30:36.006Z,96806.30
2019-05-19T04:31:38.967Z,96807.47
2019-05-19T04:32:42.352Z,96799.80
2019-05-19T04:33:45.258Z,96806.10
2019-05-19T04:34:50.847Z,96803.54
2019-05-19T04:35:57.557Z,96808.44
2019-05-19T04:36:59.040Z,96803.35
2019-05-19T04:38:02.447Z,96805.05
2019-05-19T04:39:07.506Z,96797.29
2019-05-19T04:40:10.409Z,96796.23
2019-05-19T04:41:14.103Z,96796.23
2019-05-19T04:42:17.431Z,96807.87
2019-05-19T04:43:20.888Z,96795.97
2019-05-19T04:44:23.710Z,96800.72
2019-05-19T04:45:27.084Z,96793.50
2019-05-19T04:46:29.940Z,96802.92
2019-05-19T04:47:33.368Z,96793.74
2019-05-19T04:48:36.246Z,96793.74
2019-05-19T04:49:39.733Z,96798.17
2019-05-19T04:50:42.951Z,96799.62
2019-05-19T04:51:46.351Z,96800.49
2019-05-19T04:52:49.199Z,96801.83
2019-05-19T04:53:54.882Z,96798.64
2019-05-19T04:54:59.951Z,96794.49
2019-05-19T04:56:03.356Z,96794.49
2019-05-19T04:57:06.572Z,96795.14
2019-05-19T04:58:10.033Z,96802.64
2019-05-19T04:59:12.937Z,96797.92
2019-05-19T05:00:16.718Z,96794.63
2019-05-19T05:01:19.633Z,96795.47
2019-05-19T05:02:23.058Z,96795.47
2019-05-19T05:03:28.296Z,96797.05
2019-05-19T05:04:34.276Z,96789.69
2019-05-19T05:05:37.094Z,96801.14
2019-05-19T05:06:40.899Z,96797.20
2019-05-19T05:07:43.702Z,96796.53
2019-05-19T05:08:47.134Z,96794.42
2019-05-19T05:09:50.316Z,96797.98
2019-05-19T05:10:54.284Z,96795.42
2019-05-19T05:11:57.105Z,96797.56
2019-05-19T05:13:00.900Z,96801.23
2019-05-19T05:14:03.821Z,96794.73
2019-05-19T05:15:07.174Z,96802.33
2019-05-19T05:16:13.043Z,96797.97
2019-05-19T05:17:16.423Z,96796.12
2019-05-19T05:18:19.250Z,96788.14
2019-05-19T05:19:27.859Z,96802.45
2019-05-19T05:20:30.796Z,96790.97
2019-05-19T05:21:34.276Z,96790.97
2019-05-19T05:22:37.383Z,96794.16
2019-05-19T05:23:40.806Z,96794.69
2019-05-19T05:24:43.649Z,96801.20
2019-05-19T05:25:48.199Z,96798.19
2019-05-19T05:26:51.007Z,96803.44
2019-05-19T05:27:54.381Z,96803.33
2019-05-19T05:28:57.238Z,96805.73
2019-05-19T05:30:00.644Z,96796.17
2019-05-19T05:44:07.899Z,96798.09
2019-05-19T05:45:11.399Z,96797.83
2019-05-19T05:46:14.199Z,96797.83
2019-05-19T05:47:21.463Z,96801.45
2019-05-19T05:48:25.310Z,96796.12
2019-05-19T05:49:31.906Z,96803.45
2019-05-19T05:50:35.779Z,96797.32
2019-05-19T05:51:39.280Z,96802.81
2019-05-19T05:52:47.021Z,96802.81
2019-05-19T05:53:50.400Z,96801.63
2019-05-19T05:54:55.658Z,96801.63
2019-05-19T05:55:59.424Z,96806.77
2019-05-19T05:57:02.324Z,96802.33
2019-05-19T05:58:05.685Z,96801.48
2019-05-19T05:59:11.984Z,96806.38
2019-05-19T06:00:21.354Z,96807.58
2019-05-19T06:01:26.947Z,96806.59
2019-05-19T06:02:30.394Z,96806.59
2019-05-19T06:03:33.216Z,96803.59
2019-05-19T06:04:36.568Z,96803.59
2019-05-19T06:05:39.529Z,96801.69
2019-05-19T06:06:45.784Z,96806.83
2019-05-19T06:07:48.350Z,96807.05
2019-05-19T06:08:54.158Z,96807.69
2019-05-19T06:09:58.357Z,96812.34
2019-05-19T06:11:03.431Z,96808.56
2019-05-19T06:12:07.667Z,96805.95
2019-05-19T06:13:14.064Z,96809.05
2019-05-19T06:14:17.318Z,96807.04
2019-05-19T06:15:21.933Z,96809.98
2019-05-19T06:16:26.061Z,96807.00
2019-05-19T06:17:29.528Z,96807.00
2019-05-19T06:18:35.342Z,96804.25
2019-05-19T06:19:38.792Z,96811.78
2019-05-19T06:20:44.993Z,96807.94
2019-05-19T06:21:48.414Z,96810.23
2019-05-19T06:22:56.996Z,96810.75
2019-05-19T06:23:59.831Z,96815.36
2019-05-19T06:25:02.723Z,96815.46
2019-05-19T06:26:06.354Z,96812.25
2019-05-19T06:27:09.607Z,96811.09
2019-05-19T06:28:13.468Z,96820.53
2019-05-19T06:29:21.722Z,96817.47
2019-05-19T06:30:25.168Z,96807.09
2019-05-19T06:31:28.209Z,96812.08
2019-05-19T06:32:52.079Z,96814.18
2019-05-19T06:33:54.949Z,96814.18
2019-05-19T06:34:58.597Z,96819.08
2019-05-19T06:36:01.539Z,96815.11
2019-05-19T06:37:05.104Z,96817.06
2019-05-19T06:38:08.554Z,96814.05
2019-05-19T06:39:12.524Z,96814.05
2019-05-19T06:40:15.908Z,96815.90
2019-05-19T06:41:20.663Z,96813.76
2019-05-19T06:42:26.648Z,96818.07
2019-05-19T06:43:31.178Z,96817.34
2019-05-19T06:44:38.781Z,96817.34
2019-05-19T06:45:49.948Z,96817.70
2019-05-19T06:46:52.806Z,96817.11
2019-05-19T06:47:56.363Z,96814.33
2019-05-19T06:48:59.596Z,96814.33
2019-05-19T06:50:02.992Z,96824.80
2019-05-19T06:52:33.397Z,96823.16
2019-05-19T06:53:38.514Z,96823.16
2019-05-19T06:54:41.923Z,96823.98
2019-05-19T06:55:44.773Z,96823.98
2019-05-19T06:56:48.167Z,96827.14
2019-05-19T06:57:51.501Z,96828.39
2019-05-19T06:58:54.957Z,96828.39
2019-05-19T06:59:57.787Z,96828.04
2019-05-19T07:01:01.186Z,96831.95
2019-05-19T07:02:04.004Z,96831.95
2019-05-19T07:03:07.455Z,96831.66
2019-05-19T07:04:10.918Z,96827.09
2019-05-19T07:05:14.330Z,96829.65
2019-05-19T07:06:17.160Z,96833.94
2019-05-19T07:07:20.749Z,96828.28
2019-05-19T07:08:23.586Z,96825.84
2019-05-19T07:09:30.039Z,96823.25
2019-05-19T07:10:33.432Z,96822.16
2019-05-19T07:11:38.267Z,96822.16
2019-05-19T07:12:41.179Z,96812.61
2019-05-19T07:13:44.612Z,96809.31
2019-05-19T07:14:47.449Z,96813.86
2019-05-19T07:15:57.384Z,96813.86
2019-05-19T07:17:00.623Z,96808.43
2019-05-19T07:18:04.090Z,96809.98
2019-05-19T07:19:06.895Z,96809.98
2019-05-19T07:20:10.320Z,96805.80
2019-05-19T07:21:13.144Z,96800.09
2019-05-19T07:22:18.437Z,96804.52
2019-05-19T07:23:28.194Z,96804.52
2019-05-19T07:24:31.106Z,96808.63
2019-05-19T07:25:33.978Z,96808.93
2019-05-19T07:26:38.315Z,96805.30
2019-05-19T07:27:43.929Z,96803.56
2019-05-19T07:28:47.302Z,96804.73
2019-05-19T07:29:54.705Z,96804.73
2019-05-19T07:30:58.105Z,96801.78
2019-05-19T07:32:00.928Z,96804.21
2019-05-19T07:33:04.580Z,96800.53
2019-05-19T07:34:07.368Z,96796.83
2019-05-19T07:35:10.813Z,96799.56
2019-05-19T07:36:14.077Z,96802.89
2019-05-19T07:37:17.644Z,96802.89
2019-05-19T07:38:20.600Z,96797.61
2019-05-19T07:39:24.027Z,96798.79
2019-05-19T07:40:27.097Z,96796.43
2019-05-19T07:41:30.565Z,96798.20
2019-05-19T07:42:36.967Z,96798.98
2019-05-19T07:43:40.581Z,96795.47
2019-05-19T07:44:49.003Z,96795.27
2019-05-19T07:45:52.445Z,96796.59
2019-05-19T07:46:55.670Z,96800.67
2019-05-19T07:47:59.199Z,96800.67
2019-05-19T07:49:03.649Z,96797.09
2019-05-19T07:50:10.286Z,96800.88
2019-05-19T07:51:15.319Z,96796.33
2019-05-19T07:52:20.309Z,96794.19
2019-05-19T07:53:23.176Z,96795.93
2019-05-19T07:54:29.026Z,96795.62
2019-05-19T07:55:32.214Z,96793.61
2019-05-19T07:56:37.833Z,96793.72
2019-05-19T07:57:40.652Z,96801.08
2019-05-19T07:59:03.199Z,96801.08
2019-05-19T08:00:06.146Z,96795.84
2019-05-19T08:01:15.338Z,96793.63
2019-05-19T08:02:19.824Z,96794.17
2019-05-19T08:03:23.237Z,96794.17
2019-05-19T08:04:26.644Z,96790.59
2019-05-19T08:05:32.844Z,96791.63
2019-05-19T08:06:35.690Z,96795.36
2019-05-19T08:07:39.570Z,96791.91
2019-05-19T08:08:43.176Z,96785.33
2019-05-19T08:09:49.812Z,96788.59
2019-05-19T08:10:52.684Z,96785.78
2019-05-19T08:11:56.160Z,96784.28
2019-05-19T08:12:59.061Z,96787.23
2019-05-19T08:14:02.849Z,96791.55
2019-05-19T08:15:05.726Z,96792.08
2019-05-19T08:16:10.078Z,96787.02
2019-05-19T08:17:13.404Z,96784.75
2019-05-19T08:18:36.266Z,96780.72
2019-05-19T08:19:30.584Z,96779.78
2019-05-19T08:20:37.921Z,96779.78
2019-05-19T08:21:40.730Z,96781.30
2019-05-19T08:22:44.195Z,96780.30
2019-05-19T08:23:59.757Z,96776.77
2019-05-19T08:24:53.238Z,96764.11
2019-05-19T08:26:01.397Z,96769.66
2019-05-19T08:27:04.810Z,96769.66
2019-05-19T08:28:09.114Z,96781.60
2019-05-19T08:29:16.268Z,96780.61
2019-05-19T08:30:19.455Z,96777.63
2019-05-19T08:31:26.247Z,96786.70
2019-05-19T08:32:29.077Z,96782.64
2019-05-19T08:33:32.501Z,96777.11
2019-05-19T08:34:38.187Z,96770.50
2019-05-19T08:35:41.548Z,96775.79
2019-05-19T08:36:46.385Z,96778.99
2019-05-19T08:37:50.937Z,96775.39
2019-05-19T08:38:56.594Z,96780.27
2019-05-19T08:40:00.148Z,96782.98
2019-05-19T08:41:06.005Z,96782.91
2019-05-19T08:42:09.766Z,96786.79
2019-05-19T08:43:12.612Z,96786.79
2019-05-19T08:44:16.623Z,96781.22
2019-05-19T08:45:19.431Z,96777.95
2019-05-19T08:46:22.940Z,96762.39
2019-05-19T08:47:25.772Z,96775.88
2019-05-19T08:48:29.250Z,96770.52
2019-05-19T08:49:32.178Z,96768.79
2019-05-19T08:50:37.457Z,96769.84
2019-05-19T08:51:40.339Z,96769.84
2019-05-19T08:52:43.735Z,96771.82
2019-05-19T08:53:48.797Z,96771.00
2019-05-19T08:54:52.586Z,96773.48
2019-05-19T08:55:55.561Z,96777.56
2019-05-19T08:57:16.159Z,96777.20
2019-05-19T08:58:19.004Z,96775.63
2019-05-19T08:59:22.461Z,96776.37
2019-05-19T09:00:25.292Z,96770.59
2019-05-19T09:01:32.400Z,96772.52
2019-05-19T09:02:35.301Z,96772.52
2019-05-19T09:03:39.255Z,96774.72
2019-05-19T09:04:42.111Z,96769.53
2019-05-19T09:05:49.888Z,96761.53
2019-05-19T09:06:52.825Z,96766.59
2019-05-19T09:07:56.209Z,96766.59
2019-05-19T09:09:01.756Z,96767.98
2019-05-19T09:10:05.682Z,96767.89
2019-05-19T09:11:11.735Z,96761.66
2019-05-19T09:12:15.196Z,96758.85
2019-05-19T09:13:19.222Z,96758.70
2019-05-19T09:14:22.585Z,96758.70
2019-05-19T09:15:28.272Z,96753.93
2019-05-19T09:16:33.309Z,96757.81
2019-05-19T09:17:36.430Z,96755.83
2019-05-19T09:18:42.582Z,96755.83
2019-05-19T09:19:45.607Z,96752.09
2019-05-19T09:20:57.865Z,96760.16
2019-05-19T09:22:02.991Z,96751.78
2019-05-19T09:23:06.591Z,96751.78
2019-05-19T09:24:09.849Z,96747.69
2019-05-19T09:25:13.473Z,96749.89
2019-05-19T09:26:26.995Z,96751.72
2019-05-19T09:27:22.221Z,96747.11
2019-05-19T09:28:28.080Z,96749.14
2019-05-19T09:29:36.950Z,96751.91
2019-05-19T09:30:39.495Z,96752.16
2019-05-19T09:31:42.960Z,96750.31
2019-05-19T09:32:45.855Z,96747.20
2019-05-19T09:33:49.658Z,96745.33
2019-05-19T09:34:52.671Z,96746.03
2019-05-19T09:35:57.653Z,96749.05
2019-05-19T09:37:00.758Z,96743.23
2019-05-19T09:38:10.445Z,96749.66
2019-05-19T09:39:13.547Z,96748.19
2019-05-19T09:40:26.139Z,96748.19
2019-05-19T09:41:27.760Z,96747.01
2019-05-19T09:42:36.694Z,96750.83
2019-05-19T09:43:41.898Z,96744.81
2019-05-19T09:44:45.560Z,96741.05
2019-05-19T09:45:49.944Z,96739.52
2019-05-19T09:46:54.499Z,96739.52
2019-05-19T09:48:16.402Z,96742.98
2019-05-19T09:49:35.819Z,96737.60
2019-05-19T09:50:52.015Z,96741.58
2019-05-19T09:51:55.811Z,96741.95
2019-05-19T09:52:58.700Z,96743.73
2019-05-19T09:54:05.061Z,96736.84
2019-05-19T09:55:07.979Z,96736.57
2019-05-19T09:56:12.471Z,96737.91
2019-05-19T09:57:15.377Z,96733.17
2019-05-19T09:58:20.087Z,96730.77
2019-05-19T09:59:26.052Z,96728.25
2019-05-19T10:00:30.204Z,96728.25
2019-05-19T10:01:37.494Z,96732.80
2019-05-19T10:02:40.936Z,96740.64
2019-05-19T10:03:43.813Z,96736.42
2019-05-19T10:04:47.193Z,96733.37
2019-05-19T10:05:50.547Z,96740.66
2019-05-19T10:06:56.863Z,96732.09
2019-05-19T10:07:59.783Z,96732.97
2019-05-19T10:09:04.079Z,96732.97
2019-05-19T10:10:07.978Z,96732.08
2019-05-19T10:11:19.090Z,96729.19
2019-05-19T10:12:17.487Z,96728.71
2019-05-19T10:13:22.001Z,96730.83
2019-05-19T10:14:24.880Z,96730.83
2019-05-19T10:15:28.284Z,96730.14
2019-05-19T10:16:31.256Z,96731.78
2019-05-19T10:17:37.359Z,96730.28
2019-05-19T10:18:40.358Z,96721.00
2019-05-19T10:19:44.278Z,96729.58
2019-05-19T10:20:50.315Z,96729.58
2019-05-19T10:21:52.379Z,96728.27
2019-05-19T10:22:55.476Z,96728.27
2019-05-19T10:24:02.966Z,96725.63
2019-05-19T10:25:21.016Z,96722.85
2019-05-19T10:26:17.249Z,96717.72
2019-05-19T10:27:21.723Z,96717.72
2019-05-19T10:28:25.391Z,96718.64
2019-05-19T10:29:28.265Z,96720.90
2019-05-19T10:42:53.338Z,96700.16
2019-05-19T10:44:05.246Z,96708.46
2019-05-19T10:45:09.161Z,96709.93
2019-05-19T10:46:15.092Z,96705.09
2019-05-19T10:47:18.199Z,96703.36
2019-05-19T10:48:22.031Z,96708.77
2019-05-19T10:49:24.860Z,96702.23
2019-05-19T10:50:28.315Z,96708.81
2019-05-19T10:51:31.846Z,96707.23
2019-05-19T10:52:35.242Z,96707.23
2019-05-19T10:53:38.181Z,96703.88
2019-05-19T10:54:43.274Z,96712.41
2019-05-19T10:55:46.606Z,96712.41
2019-05-19T10:56:51.897Z,96709.22
2019-05-19T10:57:55.010Z,96708.92
2019-05-19T10:58:58.597Z,96709.61
2019-05-19T11:00:04.730Z,96710.78
2019-05-19T11:01:10.665Z,96710.73
2019-05-19T11:02:19.716Z,96713.77
2019-05-19T11:03:23.317Z,96713.77
2019-05-19T11:04:26.382Z,96715.34
2019-05-19T11:05:31.406Z,96717.77
2019-05-19T11:06:34.437Z,96717.37
2019-05-19T11:07:38.665Z,96711.99
2019-05-19T11:08:44.296Z,96708.13
2019-05-19T11:09:52.839Z,96717.67
2019-05-19T11:11:02.168Z,96717.67
2019-05-19T11:12:06.752Z,96706.41
2019-05-19T11:13:19.765Z,96706.41
2019-05-19T11:14:25.969Z,96702.59
2019-05-19T11:15:32.035Z,96704.06
2019-05-19T11:16:35.627Z,96708.54
2019-05-19T11:17:41.912Z,96708.54
2019-05-19T11:18:47.472Z,96704.78
2019-05-19T11:19:54.578Z,96696.31
2019-05-19T11:20:58.168Z,96696.31
2019-05-19T11:22:01.271Z,96702.67
2019-05-19T11:23:06.276Z,96702.44
2019-05-19T11:24:16.812Z,96704.07
2019-05-19T11:25:33.006Z,96703.91
2019-05-19T11:26:29.186Z,96703.91
2019-05-19T11:27:32.610Z,96698.01
2019-05-19T11:28:35.463Z,96698.95
2019-05-19T11:29:39.377Z,96705.64
2019-05-19T11:30:42.888Z,96701.63
2019-05-19T11:31:46.772Z,96709.88
2019-05-19T11:32:49.636Z,96704.73
2019-05-19T11:34:10.953Z,96716.97
2019-05-19T11:35:16.579Z,96712.44
2019-05-19T11:36:20.006Z,96701.64
2019-05-19T11:37:24.945Z,96713.27
2019-05-19T11:38:28.462Z,96713.27
2019-05-19T11:39:34.307Z,96715.17
2019-05-19T11:40:37.658Z,96710.13
2019-05-19T11:41:42.224Z,96710.13
2019-05-19T11:42:49.258Z,96713.17
2019-05-19T11:43:52.639Z,96713.17
2019-05-19T11:44:59.301Z,96711.50
2019-05-19T11:46:02.344Z,96712.73
2019-05-19T11:47:12.811Z,96712.79
2019-05-19T11:48:20.020Z,96712.21
2019-05-19T11:49:25.020Z,96711.98
2019-05-19T11:50:28.074Z,96706.79
2019-05-19T11:51:31.929Z,96706.79
2019-05-19T11:52:46.714Z,96725.38
2019-05-19T11:53:50.572Z,96725.80
2019-05-19T11:54:55.753Z,96724.58
2019-05-19T11:56:06.616Z,96724.58
2019-05-19T11:57:07.500Z,96728.75
2019-05-19T11:58:13.358Z,96730.44
2019-05-19T11:59:17.412Z,96733.59
2019-05-19T12:00:27.548Z,96733.59
2019-05-19T12:01:25.805Z,96729.41
2019-05-19T12:02:29.390Z,96728.23
2019-05-19T12:03:33.614Z,96734.54
2019-05-19T12:04:37.444Z,96734.54
2019-05-19T12:05:43.157Z,96735.97
2019-05-19T12:06:52.839Z,96735.97
2019-05-19T12:07:55.711Z,96755.08
2019-05-19T12:08:59.001Z,96759.17
2019-05-19T12:10:04.386Z,96765.40
2019-05-19T12:11:08.457Z,96768.56
2019-05-19T12:12:11.469Z,96772.00
2019-05-19T12:13:15.415Z,96772.00
2019-05-19T12:14:21.305Z,96778.50
2019-05-19T12:15:28.462Z,96781.59
2019-05-19T12:16:34.573Z,96785.66
2019-05-19T12:17:38.491Z,96778.28
2019-05-19T12:18:41.317Z,96787.22
2019-05-19T12:19:46.279Z,96790.20
2019-05-19T12:20:51.998Z,96788.38
2019-05-19T12:21:56.301Z,96788.38
2019-05-19T12:23:02.655Z,96784.14
2019-05-19T12:24:06.857Z,96786.50
2019-05-19T12:25:10.122Z,96782.61
2019-05-19T12:26:23.355Z,96781.23
2019-05-19T12:27:19.269Z,96780.55
2019-05-19T12:28:25.615Z,96777.63
2019-05-19T12:29:30.238Z,96773.38
2019-05-19T12:30:37.306Z,96768.11
2019-05-19T12:31:46.721Z,96768.11
2019-05-19T12:32:59.334Z,96771.78
2019-05-19T12:34:04.030Z,96773.23
2019-05-19T12:35:07.530Z,96776.41
2019-05-19T12:36:12.335Z,96782.30
2019-05-19T12:37:15.837Z,96780.35
2019-05-19T12:38:20.366Z,96783.30
2019-05-19T12:39:27.444Z,96781.91
2019-05-19T12:40:33.279Z,96781.91
2019-05-19T12:41:36.693Z,96783.89
2019-05-19T12:42:40.047Z,96783.11
2019-05-19T12:43:44.337Z,96796.25
2019-05-19T12:44:52.352Z,96794.27
2019-05-19T12:46:16.385Z,96794.27
2019-05-19T12:47:19.372Z,96806.05
2019-05-19T12:48:28.888Z,96804.28
2019-05-19T12:50:02.409Z,96807.77
2019-05-19T12:51:07.577Z,96813.66
2019-05-19T12:52:13.923Z,96825.78
2019-05-19T12:53:29.237Z,96827.72
2019-05-19T12:54:33.127Z,96827.72
2019-05-19T12:55:36.493Z,96844.02
2019-05-19T12:56:42.452Z,96841.31
2019-05-19T12:57:49.156Z,96843.73
2019-05-19T12:58:54.240Z,96839.74
2019-05-19T13:00:02.278Z,96839.74
2019-05-19T13:01:08.241Z,96838.45
2019-05-19T13:02:11.629Z,96828.56
2019-05-19T13:03:18.665Z,96809.72
2019-05-19T13:04:24.141Z,96803.86
2019-05-19T13:05:28.031Z,96796.82
2019-05-19T13:06:31.297Z,96788.39